Terminal Aerodrome Forecast
Issued by NWS

Home | Current Version | Previous Version | Text Only | Print | Product List | Glossary On
Versions: 1 2 3 4 5 6 7 8 9 10 11 12 13 14 15 16 17 18 19
000
FTUS43 KDVN 280500
TAFCID
TAF
KCID 280520Z 2806/2906 08005KT P6SM SCT120 BKN250
     FM281000 09004KT P6SM VCSH SCT015 BKN040 OVC070
     FM281200 11005KT 3SM TSRA BR BKN012CB OVC030
     FM281800 13008KT P6SM VCTS SCT020 BKN035CB PROB30 2818/2824 3SM
      TSRA BKN020CB OVC030=

USA.gov is the U.S. government's official web portal to all federal, state and local government web resources and services.